Time;durP1;ratioP1;P1;durP2;ratioP2;P2;SDS_P1;SDS_P2;PMS_P1;PMS_P2;Temp;Humidity;BMP_temperature;BMP_pressure;BME280_temperature;BME280_humidity;BME280_pressure;Samples;Min_cycle;Max_cycle;Signal;HPM_P1;HPM_P2
2022/04/21 00:00:43;;;;;;;8.55;7.68;;;;;;;9.31;50.85;96119.25;5054863;28;20107;-78
2022/04/21 00:03:13;;;;;;;8.85;7.55;;;;;;;9.28;50.94;96117.81;5055102;28;20045;-78
2022/04/21 00:05:40;;;;;;;8.18;7.45;;;;;;;9.24;50.79;96110.56;5054809;28;20140;-78
2022/04/21 00:08:09;;;;;;;8.45;7.57;;;;;;;9.21;51.00;96113.56;5053901;28;20053;-78
2022/04/21 00:10:37;;;;;;;9.63;8.60;;;;;;;9.17;51.17;96097.50;5054437;28;20052;-78
2022/04/21 00:13:06;;;;;;;10.55;8.45;;;;;;;9.15;51.53;96094.28;5054246;28;20053;-78
2022/04/21 00:15:34;;;;;;;8.75;7.85;;;;;;;9.14;51.35;96091.84;5054414;28;20049;-78
2022/04/21 00:18:02;;;;;;;9.75;8.05;;;;;;;9.16;51.24;96092.47;5053839;28;20051;-78
2022/04/21 00:20:31;;;;;;;9.07;8.18;;;;;;;9.15;51.61;96090.88;5054146;28;20426;-78
2022/04/21 00:25:43;;;;;;;8.68;7.75;;;;;;;9.12;51.43;96088.63;5054409;28;20139;-78
2022/04/21 00:28:10;;;;;;;8.15;7.40;;;;;;;9.11;51.64;96087.81;5053969;28;20052;-78
2022/04/21 00:30:38;;;;;;;9.88;8.10;;;;;;;9.11;51.63;96089.63;5054264;28;20045;-78
2022/04/21 00:33:06;;;;;;;9.43;8.48;;;;;;;9.05;52.09;96094.59;5053763;28;20059;-78
2022/04/21 00:35:34;;;;;;;8.43;7.63;;;;;;;9.02;52.31;96094.94;5053672;28;20501;-78
2022/04/21 00:38:02;;;;;;;9.25;7.85;;;;;;;9.01;52.33;96088.13;5052964;28;20518;-78
2022/04/21 00:40:32;;;;;;;10.50;8.18;;;;;;;9.01;52.06;96087.34;5053218;28;20049;-79
2022/04/21 00:43:02;;;;;;;8.07;7.28;;;;;;;9.03;52.16;96091.34;5054013;28;20080;-78
2022/04/21 00:45:31;;;;;;;9.40;8.60;;;;;;;9.01;51.99;96082.94;5053622;28;20052;-78
2022/04/21 00:48:01;;;;;;;9.75;8.55;;;;;;;8.97;52.20;96080.88;5053104;28;20064;-78
2022/04/21 00:50:31;;;;;;;15.02;8.68;;;;;;;8.91;52.42;96082.41;5053457;28;20048;-78
2022/04/21 00:53:02;;;;;;;9.38;8.48;;;;;;;8.89;52.72;96084.38;5053519;28;20059;-78
2022/04/21 00:55:31;;;;;;;9.88;8.40;;;;;;;8.90;52.80;96077.38;5054000;28;20048;-78
2022/04/21 00:58:01;;;;;;;9.57;7.53;;;;;;;8.90;52.94;96080.81;5052894;28;20049;-78
2022/04/21 01:00:28;;;;;;;9.07;8.15;;;;;;;8.90;52.83;96077.38;5053542;28;20048;-78
2022/04/21 01:02:56;;;;;;;9.02;8.10;;;;;;;8.85;52.50;96077.94;5053178;28;20095;-78
2022/04/21 01:05:29;;;;;;;10.52;7.78;;;;;;;8.78;52.55;96077.06;5053159;28;20049;-78
2022/04/21 01:07:59;;;;;;;8.90;7.88;;;;;;;8.75;53.02;96082.66;5052683;28;20048;-78
2022/04/21 01:10:29;;;;;;;9.00;8.10;;;;;;;8.76;54.22;96087.66;5053220;28;20053;-78
2022/04/21 01:12:58;;;;;;;9.27;8.38;;;;;;;8.76;52.72;96079.03;5053113;28;20049;-78
2022/04/21 01:15:26;;;;;;;10.10;9.07;;;;;;;8.66;52.82;96084.53;5052817;28;20045;-78
2022/04/21 01:17:55;;;;;;;9.07;7.75;;;;;;;8.62;53.33;96076.28;5052724;28;20063;-78
2022/04/21 01:20:24;;;;;;;9.27;8.18;;;;;;;8.65;53.75;96077.72;5053021;28;20048;-79
2022/04/21 01:22:52;;;;;;;9.10;8.23;;;;;;;8.66;53.04;96079.34;5052585;28;20056;-78
2022/04/21 01:25:21;;;;;;;8.50;7.68;;;;;;;8.62;53.28;96073.69;5052871;28;20045;-79
2022/04/21 01:27:51;;;;;;;8.93;8.02;;;;;;;8.57;53.06;96076.03;5051734;28;20056;-79
2022/04/21 01:30:18;;;;;;;9.15;8.05;;;;;;;8.54;53.78;96084.19;5052370;28;20060;-79
2022/04/21 01:32:48;;;;;;;9.45;7.95;;;;;;;8.55;53.55;96082.38;5052854;28;20099;-79
2022/04/21 01:35:16;;;;;;;9.20;7.55;;;;;;;8.53;53.92;96079.19;5052834;28;20052;-79
2022/04/21 01:43:15;;;;;;;9.95;7.50;;;;;;;8.61;53.16;96076.47;5052912;28;20049;-79
2022/04/21 01:45:43;;;;;;;11.48;7.93;;;;;;;8.58;52.98;96079.44;5052208;28;20071;-79
2022/04/21 01:48:11;;;;;;;10.45;8.27;;;;;;;8.54;53.21;96071.19;5052351;28;20057;-79
2022/04/21 01:50:39;;;;;;;9.32;7.45;;;;;;;8.48;53.49;96079.72;5053261;28;20060;-79
2022/04/21 01:53:08;;;;;;;13.07;9.00;;;;;;;8.41;53.56;96076.22;5052595;28;20049;-79
2022/04/21 01:55:35;;;;;;;9.43;8.35;;;;;;;8.34;53.46;96075.31;5055563;28;20491;-79
2022/04/21 01:58:03;;;;;;;9.55;8.52;;;;;;;8.28;53.49;96081.22;5076185;28;20053;-78
2022/04/21 02:00:31;;;;;;;10.90;9.35;;;;;;;8.20;54.02;96077.75;5069789;28;20045;-79
2022/04/21 02:02:58;;;;;;;8.98;8.07;;;;;;;8.15;53.93;96064.47;5053163;28;20060;-79
2022/04/21 02:05:26;;;;;;;9.75;8.85;;;;;;;8.10;54.04;96074.59;5052819;28;20056;-79
2022/04/21 02:07:54;;;;;;;9.88;8.60;;;;;;;8.09;54.23;96069.56;5052616;28;20419;-79
2022/04/21 02:10:23;;;;;;;10.02;8.82;;;;;;;8.05;54.61;96071.75;5052871;28;20053;-79
2022/04/21 02:12:51;;;;;;;10.40;9.27;;;;;;;8.00;54.27;96063.66;5050862;28;20060;-78
2022/04/21 02:15:19;;;;;;;11.45;8.30;;;;;;;7.98;54.41;96070.81;5050099;28;20052;-79
2022/04/21 02:17:47;;;;;;;9.85;8.93;;;;;;;7.93;54.69;96067.97;5049973;28;20049;-79
2022/04/21 02:20:15;;;;;;;10.52;8.75;;;;;;;7.92;54.93;96064.56;5050645;28;20060;-78
2022/04/21 02:22:43;;;;;;;9.75;8.75;;;;;;;7.90;55.18;96070.91;5051223;28;20064;-79
2022/04/21 02:25:12;;;;;;;10.73;9.65;;;;;;;7.89;54.93;96070.09;5052701;28;20052;-78
2022/04/21 02:27:44;;;;;;;11.75;9.52;;;;;;;7.87;55.23;96063.47;5051283;28;20052;-78
2022/04/21 02:30:14;;;;;;;10.07;9.03;;;;;;;7.83;54.77;96066.44;5050441;28;20053;-78
2022/04/21 02:32:41;;;;;;;10.77;9.73;;;;;;;7.76;55.04;96060.34;5050047;28;20292;-78
2022/04/21 02:35:10;;;;;;;10.93;8.80;;;;;;;7.67;55.23;96063.19;5045824;28;20520;-79
2022/04/21 02:37:39;;;;;;;10.98;9.45;;;;;;;7.63;55.61;96063.53;5048826;28;20049;-79
2022/04/21 02:40:08;;;;;;;11.30;9.82;;;;;;;7.60;55.33;96063.06;5049033;28;20420;-79
2022/04/21 02:42:38;;;;;;;12.57;9.55;;;;;;;7.57;55.52;96058.25;5050278;28;20495;-78
2022/04/21 02:45:08;;;;;;;13.65;9.43;;;;;;;7.51;55.84;96058.94;5051307;28;20056;-79
2022/04/21 02:47:37;;;;;;;11.82;10.30;;;;;;;7.48;55.53;96054.91;5050743;28;20053;-79
2022/04/21 02:50:06;;;;;;;11.18;10.07;;;;;;;7.46;55.75;96050.88;5051597;28;20131;-79
2022/04/21 02:52:35;;;;;;;9.85;8.77;;;;;;;7.50;57.15;96050.38;5051869;28;20053;-79
2022/04/21 02:57:47;;;;;;;9.90;8.80;;;;;;;7.63;56.30;96031.56;5051462;28;20049;-78
2022/04/21 03:00:16;;;;;;;9.98;8.82;;;;;;;7.69;56.40;96030.84;5052206;28;20049;-79
2022/04/21 03:02:44;;;;;;;10.13;9.13;;;;;;;7.71;56.29;96028.91;5052092;28;20069;-78
2022/04/21 03:05:12;;;;;;;10.68;9.15;;;;;;;7.74;56.27;96025.97;5055627;28;20511;-79
2022/04/21 03:07:39;;;;;;;12.48;10.05;;;;;;;7.78;55.81;96029.00;5054499;28;20051;-78
2022/04/21 03:10:08;;;;;;;10.68;9.45;;;;;;;7.80;55.64;96019.22;5055270;28;20052;-79
2022/04/21 03:12:35;;;;;;;11.98;10.02;;;;;;;7.78;55.49;96018.59;5055414;28;20041;-79
2022/04/21 03:15:03;;;;;;;10.35;9.13;;;;;;;7.74;55.40;96023.38;5055418;28;20049;-78
2022/04/21 03:17:32;;;;;;;13.93;10.35;;;;;;;7.64;55.49;96022.81;5054139;28;20045;-79
2022/04/21 03:20:00;;;;;;;15.70;11.98;;;;;;;7.50;55.45;96021.81;5055525;28;20414;-79
2022/04/21 03:25:12;;;;;;;11.07;9.95;;;;;;;7.27;55.80;96026.22;5054948;28;20467;-79
2022/04/21 03:27:40;;;;;;;10.73;9.63;;;;;;;7.23;56.29;96028.34;5054219;28;20045;-78
2022/04/21 03:30:09;;;;;;;11.20;9.50;;;;;;;7.30;56.81;96031.06;5055083;28;20068;-79
2022/04/21 03:32:38;;;;;;;11.18;9.98;;;;;;;7.30;56.33;96031.84;5054819;28;20053;-79
2022/04/21 03:35:07;;;;;;;12.63;10.52;;;;;;;7.24;56.31;96024.78;5054746;28;20491;-78
2022/04/21 03:37:34;;;;;;;13.80;10.90;;;;;;;7.14;56.52;96027.63;5054321;28;20056;-79
2022/04/21 03:40:02;;;;;;;12.70;10.57;;;;;;;7.06;56.63;96021.69;5054859;28;20056;-79
2022/04/21 03:42:31;;;;;;;14.68;11.25;;;;;;;6.98;56.34;96027.75;5054664;28;20057;-79
2022/04/21 03:44:59;;;;;;;11.98;10.60;;;;;;;6.90;56.89;96017.44;5054638;28;20072;-78
2022/04/21 03:47:27;;;;;;;11.30;10.13;;;;;;;6.85;57.18;96017.16;5053500;28;20049;-79
2022/04/21 03:49:56;;;;;;;13.88;10.82;;;;;;;6.82;57.68;96031.22;5054578;28;20061;-79
2022/04/21 03:52:24;;;;;;;11.80;10.25;;;;;;;6.84;58.43;96026.69;5054554;28;20079;-79
2022/04/21 03:54:51;;;;;;;12.88;11.55;;;;;;;6.84;57.30;96021.50;5054405;28;20075;-79
2022/04/21 03:57:19;;;;;;;14.02;10.88;;;;;;;6.86;58.08;96018.75;5053517;28;20510;-79
2022/04/21 03:59:47;;;;;;;14.93;11.75;;;;;;;6.88;57.37;96015.00;5054776;28;20045;-78
2022/04/21 04:02:14;;;;;;;12.52;9.95;;;;;;;6.89;57.48;96021.00;5056348;28;20503;-79
2022/04/21 04:04:42;;;;;;;12.93;10.70;;;;;;;6.87;57.28;96016.00;5049444;28;20045;-79
2022/04/21 04:12:41;;;;;;;15.20;11.25;;;;;;;6.71;57.54;96026.44;5035071;28;20053;-79
2022/04/21 04:15:10;;;;;;;12.80;10.15;;;;;;;6.69;57.97;96024.06;5045563;28;20041;-79
2022/04/21 04:17:38;;;;;;;11.98;10.63;;;;;;;6.71;58.19;96021.25;5053303;28;20080;-79
2022/04/21 04:20:06;;;;;;;18.05;11.77;;;;;;;6.76;57.89;96019.00;5046062;28;20061;-80
2022/04/21 04:22:40;;;;;;;17.52;11.50;;;;;;;6.73;58.26;96024.50;5034787;28;20045;-78
2022/04/21 04:25:09;;;;;;;16.98;13.00;;;;;;;6.75;58.24;96022.53;5034369;28;20111;-78
2022/04/21 04:27:37;;;;;;;13.35;10.70;;;;;;;6.76;58.21;96024.97;5033577;28;20075;-78
2022/04/21 04:30:06;;;;;;;17.27;12.82;;;;;;;6.73;57.74;96025.28;5034565;28;20707;-78
2022/04/21 04:32:33;;;;;;;15.57;12.85;;;;;;;6.67;57.89;96020.00;5033988;28;20115;-77
2022/04/21 04:35:01;;;;;;;13.35;11.45;;;;;;;6.63;58.14;96021.34;5037138;28;20045;-78
2022/04/21 04:37:28;;;;;;;15.20;12.80;;;;;;;6.64;58.12;96025.53;5049998;28;20056;-78
2022/04/21 04:39:59;;;;;;;14.73;11.57;;;;;;;6.66;57.84;96023.56;5034014;28;20053;-78
2022/04/21 04:42:28;;;;;;;14.68;11.52;;;;;;;6.67;57.78;96025.19;5034683;28;20052;-78
2022/04/21 04:47:37;;;;;;;14.00;11.38;;;;;;;6.66;57.67;96026.16;5053345;28;20055;-78
2022/04/21 04:50:05;;;;;;;14.80;11.52;;;;;;;6.62;58.00;96027.47;5083888;22;20048;-81
2022/04/21 04:52:33;;;;;;;15.63;12.32;;;;;;;6.59;58.21;96024.25;5062313;28;20064;-81
2022/04/21 04:55:02;;;;;;;17.30;13.27;;;;;;;6.53;58.42;96019.75;5060542;28;20059;-81
2022/04/21 04:57:31;;;;;;;18.58;13.25;;;;;;;6.48;58.38;96022.06;5065447;28;20043;-81
2022/04/21 05:00:01;;;;;;;17.77;13.32;;;;;;;6.45;58.27;96018.97;5076441;28;20053;-81
2022/04/21 05:02:29;;;;;;;21.23;13.75;;;;;;;6.40;58.44;96020.28;5082670;28;20072;-81
2022/04/21 05:04:57;;;;;;;18.00;12.93;;;;;;;6.38;58.37;96016.25;5068689;28;20045;-80
2022/04/21 05:07:25;;;;;;;20.58;14.60;;;;;;;6.36;58.91;96018.22;5074156;28;20055;-81
2022/04/21 05:09:58;;;;;;;23.33;14.30;;;;;;;6.37;58.99;96022.44;5088432;28;20039;-81
2022/04/21 05:15:10;;;;;;;20.20;13.80;;;;;;;6.33;59.22;96021.16;5539396;22;20064;-81
2022/04/21 05:17:38;;;;;;;20.30;14.57;;;;;;;6.34;59.18;96020.16;5074929;28;20116;-79
2022/04/21 05:20:25;;;;;;;20.80;13.98;;;;;;;6.33;58.94;96018.56;5073781;28;20072;-81
2022/04/21 05:23:03;;;;;;;18.80;14.57;;;;;;;6.30;59.42;96018.91;5076250;28;20051;-81
2022/04/21 05:25:31;;;;;;;18.25;14.38;;;;;;;6.29;59.47;96018.09;5076187;28;20053;-81
2022/04/21 05:28:00;;;;;;;22.65;14.85;;;;;;;6.31;59.22;96020.50;5076119;28;20037;-81
2022/04/21 05:33:20;;;;;;;20.30;14.18;;;;;;;6.42;59.80;96011.56;5076784;28;20053;-81
2022/04/21 05:35:52;;;;;;;19.98;14.00;;;;;;;6.51;59.51;96021.69;5076734;28;20063;-81
2022/04/21 05:38:22;;;;;;;18.20;14.13;;;;;;;6.58;59.31;96014.88;5077476;28;20036;-81
2022/04/21 05:40:52;;;;;;;17.05;12.98;;;;;;;6.64;59.64;96015.16;5078247;28;20035;-81
2022/04/21 05:43:23;;;;;;;22.42;14.55;;;;;;;6.70;59.14;96017.88;5077983;28;20040;-80
2022/04/21 05:45:54;;;;;;;21.10;14.80;;;;;;;6.73;59.05;96014.13;5077678;28;20041;-81
2022/04/21 05:48:24;;;;;;;18.88;13.27;;;;;;;6.79;59.67;96010.84;5077968;28;20221;-81
2022/04/21 05:50:59;;;;;;;16.85;13.73;;;;;;;6.91;59.92;96008.66;5077854;28;20037;-81
2022/04/21 05:53:30;;;;;;;21.30;17.23;;;;;;;6.96;59.27;96012.34;5078016;28;20053;-81
2022/04/21 05:56:02;;;;;;;18.98;15.68;;;;;;;7.00;59.28;96012.81;5077775;28;20029;-81
2022/04/21 05:58:32;;;;;;;28.30;17.52;;;;;;;7.04;59.36;96016.69;5077846;28;20044;-81
2022/04/21 06:01:02;;;;;;;20.80;16.27;;;;;;;7.08;59.48;96012.75;5078009;28;20033;-81
2022/04/21 06:03:32;;;;;;;18.58;14.88;;;;;;;7.19;59.82;96011.53;5077943;28;20033;-81
2022/04/21 06:06:01;;;;;;;25.77;16.48;;;;;;;7.29;59.23;96016.47;5077616;28;20059;-81
2022/04/21 06:08:30;;;;;;;23.90;17.73;;;;;;;7.32;58.97;96016.13;5077466;28;20055;-81
2022/04/21 06:10:59;;;;;;;24.20;16.48;;;;;;;7.35;58.99;96020.97;5077887;28;20040;-81
2022/04/21 06:13:30;;;;;;;22.70;15.70;;;;;;;7.41;59.27;96012.47;5077828;28;20036;-81
2022/04/21 06:16:02;;;;;;;29.45;17.25;;;;;;;7.50;59.58;96011.44;5077295;28;20059;-81
2022/04/21 06:18:36;;;;;;;18.95;14.82;;;;;;;7.63;59.72;96011.63;5077440;28;20045;-81
2022/04/21 06:21:09;;;;;;;21.60;17.25;;;;;;;7.71;59.12;96002.94;5077804;28;20043;-81
2022/04/21 06:23:39;;;;;;;23.17;15.98;;;;;;;7.79;58.56;96005.44;5077626;28;20041;-81
2022/04/21 06:26:12;;;;;;;22.20;15.43;;;;;;;7.89;58.73;96005.16;5077304;28;20109;-80
2022/04/21 06:28:47;;;;;;;21.27;16.30;;;;;;;8.01;58.77;95998.56;5077460;28;20033;-81
2022/04/21 06:31:16;;;;;;;18.20;14.35;;;;;;;8.16;58.26;96001.16;5077799;28;20039;-81
2022/04/21 06:33:46;;;;;;;18.88;13.25;;;;;;;8.27;58.44;95989.47;5077620;28;20032;-81
2022/04/21 06:36:15;;;;;;;16.85;13.27;;;;;;;8.40;58.23;96001.81;5077301;28;20041;-81
2022/04/21 06:38:45;;;;;;;18.88;13.35;;;;;;;8.51;58.01;95996.19;5079465;28;20039;-81
2022/04/21 06:41:14;;;;;;;20.75;14.45;;;;;;;8.63;57.82;95996.50;5081626;28;20063;-81
2022/04/21 06:49:20;;;;;;;17.30;13.27;;;;;;;9.07;57.30;95998.13;5081205;28;20037;-81
2022/04/21 06:51:51;;;;;;;;;;;;;;;9.21;57.76;95993.84;5081591;28;20071;-81
2022/04/21 06:54:21;;;;;;;12.57;11.27;;;;;;;9.36;56.79;95991.97;5081100;28;19911;-81
2022/04/21 06:56:50;;;;;;;13.82;10.45;;;;;;;9.52;56.63;95987.47;5080746;28;20037;-81
2022/04/21 06:59:21;;;;;;;13.35;11.27;;;;;;;9.68;56.02;95997.56;5081015;28;20041;-81
2022/04/21 07:01:50;;;;;;;11.65;10.38;;;;;;;9.81;56.10;95995.06;5080939;28;20033;-80
2022/04/21 07:04:22;;;;;;;12.23;10.93;;;;;;;9.97;55.73;95998.34;5080759;28;20058;-84
2022/04/21 07:06:51;;;;;;;10.30;9.00;;;;;;;10.12;55.09;95991.22;5080620;28;20036;-81
2022/04/21 07:09:20;;;;;;;11.07;9.95;;;;;;;10.29;54.26;95996.94;5080788;28;20059;-81
2022/04/21 07:11:49;;;;;;;11.38;9.85;;;;;;;10.45;54.17;96001.00;5080798;28;20101;-81
2022/04/21 07:14:17;;;;;;;11.13;9.88;;;;;;;10.62;54.18;95997.03;5080756;28;20131;-81
2022/04/21 07:16:48;;;;;;;11.98;9.57;;;;;;;10.78;54.25;96003.72;5080283;28;20041;-81
2022/04/21 07:19:16;;;;;;;8.35;7.53;;;;;;;10.93;52.70;95999.13;5080738;28;20033;-81
2022/04/21 07:21:51;;;;;;;10.73;7.70;;;;;;;11.07;52.16;95994.72;5080577;28;20057;-80
2022/04/21 07:24:21;;;;;;;8.10;6.55;;;;;;;11.21;51.64;95994.72;5080662;28;20096;-81
2022/04/21 07:26:55;;;;;;;8.60;7.70;;;;;;;11.35;51.14;96006.78;5080125;28;20083;-81
2022/04/21 07:29:27;;;;;;;7.05;6.35;;;;;;;11.49;51.29;95995.31;5080561;28;20053;-81
2022/04/21 07:32:04;;;;;;;9.32;7.07;;;;;;;11.67;51.14;95994.69;5080471;28;20060;-81
2022/04/21 07:34:38;;;;;;;6.50;5.90;;;;;;;11.85;50.60;95991.47;5080514;28;20037;-81
2022/04/21 07:37:09;;;;;;;;;;;;;;;12.05;50.29;96001.13;5080722;28;20056;-81
2022/04/21 07:39:40;;;;;;;6.20;5.13;;;;;;;12.20;49.80;95999.06;5080392;28;19905;-81
2022/04/21 07:42:09;;;;;;;6.97;5.20;;;;;;;12.36;49.51;96003.00;5080360;28;20061;-81
2022/04/21 07:44:39;;;;;;;6.45;4.97;;;;;;;12.48;48.32;96003.16;5080223;28;20051;-80
2022/04/21 07:47:12;;;;;;;5.38;4.88;;;;;;;12.62;48.54;96004.72;5079804;28;20055;-81
2022/04/21 07:49:46;;;;;;;8.25;5.00;;;;;;;12.80;47.94;96005.81;5080084;28;20056;-81
2022/04/21 07:55:15;;;;;;;8.88;4.70;;;;;;;13.10;46.25;96001.59;5079971;28;20047;-80
2022/04/21 07:57:44;;;;;;;6.88;5.28;;;;;;;13.15;45.98;95999.16;5079723;28;20056;-81
2022/04/21 08:00:14;;;;;;;5.50;4.97;;;;;;;13.21;45.88;96000.13;5079829;28;20060;-81
2022/04/21 08:02:44;;;;;;;6.57;5.47;;;;;;;13.26;45.46;95996.88;5079824;28;20041;-80
2022/04/21 08:05:14;;;;;;;7.32;5.55;;;;;;;13.32;46.40;95990.81;5079932;28;20101;-81
2022/04/21 08:07:46;;;;;;;7.22;5.10;;;;;;;13.47;45.48;95996.53;5079496;28;20031;-81
2022/04/21 08:10:19;;;;;;;8.38;6.00;;;;;;;13.64;45.26;96006.44;5079685;28;20256;-81
2022/04/21 08:12:51;;;;;;;6.40;5.80;;;;;;;13.73;45.31;95995.50;5079682;28;20033;-82
2022/04/21 08:15:26;;;;;;;7.45;5.68;;;;;;;13.86;44.82;95996.38;5079471;28;20049;-81
2022/04/21 08:17:55;;;;;;;5.63;5.13;;;;;;;13.92;44.38;95996.28;5079273;28;20068;-81
2022/04/21 08:20:25;;;;;;;5.38;4.88;;;;;;;13.98;44.08;95992.81;5079413;28;20029;-81
2022/04/21 08:22:55;;;;;;;5.63;5.13;;;;;;;14.05;43.66;95997.97;5079328;28;20037;-81
2022/04/21 08:34:21;;;;;;;6.43;5.82;;;;;;;14.40;43.12;95979.81;5079501;28;20029;-78
2022/04/21 08:36:54;;;;;;;5.90;5.30;;;;;;;14.42;43.47;95971.75;5079016;28;20105;-79
2022/04/21 08:39:25;;;;;;;6.57;5.97;;;;;;;14.52;43.11;95973.81;5079074;28;20029;-79
2022/04/21 08:42:08;;;;;;;7.68;6.53;;;;;;;14.61;43.52;95965.47;5079108;28;20033;-78
2022/04/21 08:44:41;;;;;;;8.18;6.30;;;;;;;14.78;43.58;95967.44;5079142;28;20043;-78
2022/04/21 08:47:17;;;;;;;7.00;6.03;;;;;;;14.99;44.11;95960.91;5078963;28;20072;-78
2022/04/21 08:49:50;;;;;;;6.47;5.68;;;;;;;15.24;41.81;95961.53;5079143;28;20028;-78
2022/04/21 08:52:20;;;;;;;4.90;4.38;;;;;;;15.39;40.71;95957.63;5079053;28;20033;-79
2022/04/21 08:54:49;;;;;;;4.22;3.83;;;;;;;15.45;40.71;95957.53;5078966;28;20025;-78
2022/04/21 08:57:18;;;;;;;10.65;3.50;;;;;;;15.51;40.41;95953.19;5078632;28;20033;-78
2022/04/21 08:59:47;;;;;;;9.90;4.60;;;;;;;15.54;40.27;95962.44;5078704;28;20096;-79
2022/04/21 09:02:18;;;;;;;5.50;4.68;;;;;;;15.54;40.70;95965.88;5078454;28;20040;-78
2022/04/21 09:04:46;;;;;;;4.25;3.90;;;;;;;15.59;40.41;95963.38;5078714;28;20067;-79
2022/04/21 09:07:17;;;;;;;4.20;3.90;;;;;;;15.65;40.23;95954.56;5078429;28;20075;-78
2022/04/21 09:10:05;;;;;;;4.20;3.90;;;;;;;15.74;40.34;95962.94;5078602;28;20033;-79
2022/04/21 09:12:34;;;;;;;6.00;4.63;;;;;;;15.83;40.09;95958.09;5078612;28;20037;-79
2022/04/21 09:15:07;;;;;;;9.82;4.22;;;;;;;15.90;40.00;95961.44;5078534;28;20044;-78
2022/04/21 09:17:44;;;;;;;15.02;5.35;;;;;;;15.97;39.04;95958.69;5078200;28;20029;-78
2022/04/21 09:20:16;;;;;;;9.10;2.88;;;;;;;15.98;37.67;95961.09;5078419;28;20056;-78
2022/04/21 09:22:52;;;;;;;2.92;2.63;;;;;;;15.96;37.13;95959.69;5078511;28;20097;-79
2022/04/21 09:25:26;;;;;;;6.43;2.70;;;;;;;15.96;37.83;95950.00;5078556;28;20052;-79
2022/04/21 09:27:56;;;;;;;8.70;3.28;;;;;;;16.03;38.24;95949.88;5078109;28;20033;-79
2022/04/21 09:30:30;;;;;;;7.95;3.95;;;;;;;16.10;38.12;95942.66;5078258;28;20051;-79
2022/04/21 09:33:05;;;;;;;3.70;3.13;;;;;;;16.13;38.10;95939.53;5078434;28;20040;-78
2022/04/21 09:35:37;;;;;;;3.78;3.38;;;;;;;16.19;37.81;95943.06;5078309;28;20029;-79
2022/04/21 09:38:05;;;;;;;4.45;3.58;;;;;;;16.20;37.88;95939.41;5077863;28;20040;-78
2022/04/21 09:40:38;;;;;;;7.25;4.10;;;;;;;16.21;38.26;95943.66;5078177;28;20033;-78
2022/04/21 09:43:06;;;;;;;6.30;3.50;;;;;;;16.26;37.92;95928.75;5078110;28;20089;-78
2022/04/21 09:48:32;;;;;;;8.10;3.33;;;;;;;16.34;37.29;95932.06;5077890;28;20033;-79
2022/04/21 09:51:08;;;;;;;4.07;3.00;;;;;;;16.40;37.55;95931.91;5078044;28;20057;-79
2022/04/21 09:53:49;;;;;;;3.40;3.08;;;;;;;16.48;37.09;95933.34;5078081;28;20033;-78
2022/04/21 09:56:31;;;;;;;2.90;2.70;;;;;;;16.56;36.94;95926.94;5077929;28;20059;-79
2022/04/21 09:59:02;;;;;;;3.15;2.50;;;;;;;16.57;36.54;95931.94;5077713;28;20063;-79
2022/04/21 10:01:36;;;;;;;2.90;2.67;;;;;;;16.58;36.53;95922.22;5077942;28;20039;-79
2022/04/21 10:04:11;;;;;;;3.15;2.80;;;;;;;16.63;36.68;95924.94;5078075;28;20051;-79
2022/04/21 10:06:47;;;;;;;4.97;3.55;;;;;;;16.64;36.70;95922.09;5077721;28;20045;-78
2022/04/21 10:09:17;;;;;;;4.28;3.95;;;;;;;16.62;37.16;95926.00;5077834;28;20029;-78
2022/04/21 10:11:46;;;;;;;4.70;4.30;;;;;;;16.62;37.84;95918.88;5077839;28;20033;-78
2022/04/21 10:14:16;;;;;;;6.78;4.55;;;;;;;16.66;37.52;95929.72;5080989;28;20032;-79
2022/04/21 10:16:57;;;;;;;10.00;5.07;;;;;;;16.67;37.66;95915.53;5081948;28;20028;-79
2022/04/21 10:19:25;;;;;;;5.03;3.72;;;;;;;16.69;37.03;95921.38;5081964;28;20029;-78
2022/04/21 10:21:56;;;;;;;3.15;2.88;;;;;;;16.69;36.63;95910.84;5082031;28;20674;-79
2022/04/21 10:24:28;;;;;;;5.97;4.18;;;;;;;16.71;36.99;95911.41;5081905;28;20040;-79
2022/04/21 10:26:59;;;;;;;7.68;4.53;;;;;;;16.69;36.89;95910.84;5081460;28;20029;-79
2022/04/21 10:29:27;;;;;;;6.10;4.10;;;;;;;16.74;37.48;95916.19;5081869;28;20032;-77
2022/04/21 10:31:59;;;;;;;4.45;3.47;;;;;;;16.78;36.54;95911.25;5081959;28;20059;-79
2022/04/21 10:34:34;;;;;;;3.40;3.15;;;;;;;16.80;36.50;95898.69;5081964;28;20033;-78
2022/04/21 10:37:11;;;;;;;4.97;3.53;;;;;;;16.83;35.67;95903.47;5081116;28;20032;-79
2022/04/21 10:39:41;;;;;;;4.07;3.45;;;;;;;16.86;36.35;95898.53;5081608;28;20080;-79
2022/04/21 10:42:29;;;;;;;4.57;4.00;;;;;;;16.92;36.53;95888.84;5081629;28;20040;-79
2022/04/21 10:44:58;;;;;;;3.88;3.58;;;;;;;16.98;37.16;95895.00;5081585;28;20036;-79
2022/04/21 10:47:43;;;;;;;4.05;3.70;;;;;;;17.07;37.13;95878.53;5081352;28;20033;-79
2022/04/21 10:50:13;;;;;;;6.40;4.20;;;;;;;17.20;36.93;95887.19;5095964;22;20095;-84
2022/04/21 10:58:51;;;;;;;3.05;2.75;;;;;;;17.24;34.90;95868.00;5070530;28;20040;-82
2022/04/21 11:01:38;;;;;;;6.13;3.97;;;;;;;17.25;34.77;95863.53;5047573;28;20046;-81
2022/04/21 11:04:12;;;;;;;3.30;3.00;;;;;;;17.23;34.54;95861.16;5047346;28;20107;-80
2022/04/21 11:06:42;;;;;;;6.28;3.50;;;;;;;17.22;34.45;95859.53;5049758;28;20053;-82
2022/04/21 11:09:30;;;;;;;4.22;3.83;;;;;;;17.25;35.36;95863.53;5058532;28;20048;-86
2022/04/21 11:11:57;;;;;;;5.47;3.50;;;;;;;17.32;35.23;95864.16;5056298;28;20140;-82
2022/04/21 11:14:32;;;;;;;4.40;3.13;;;;;;;17.30;34.51;95858.34;5051344;28;20045;-80
2022/04/21 11:17:01;;;;;;;5.65;3.80;;;;;;;17.29;34.46;95856.72;5049939;28;20046;-81
2022/04/21 11:19:44;;;;;;;7.30;3.22;;;;;;;17.36;35.43;95862.66;5055062;28;20034;-82
2022/04/21 11:22:14;;;;;;;4.15;3.67;;;;;;;17.50;34.81;95857.81;5048668;28;20049;-78
2022/04/21 11:25:05;;;;;;;4.93;3.63;;;;;;;17.57;34.46;95855.78;5049026;28;20057;-81
2022/04/21 11:27:37;;;;;;;4.43;4.03;;;;;;;17.59;34.08;95845.81;5052356;28;20060;-81
2022/04/21 11:30:08;;;;;;;6.20;4.03;;;;;;;17.59;33.84;95845.81;5051563;28;20115;-82
2022/04/21 11:32:36;;;;;;;5.70;3.70;;;;;;;17.52;34.09;95832.00;5049977;28;20053;-80
2022/04/21 11:35:06;;;;;;;5.70;4.05;;;;;;;17.50;33.95;95834.09;5049928;28;20055;-81
2022/04/21 11:37:50;;;;;;;5.85;3.20;;;;;;;17.59;35.07;95837.09;5048317;28;20060;-79
2022/04/21 11:40:27;;;;;;;4.72;4.20;;;;;;;17.71;34.60;95838.59;5047409;28;20124;-79
2022/04/21 11:42:56;;;;;;;4.38;3.97;;;;;;;17.83;34.40;95835.84;5047323;28;20049;-80
2022/04/21 11:45:27;;;;;;;5.38;4.85;;;;;;;17.91;34.03;95845.19;5046294;28;20052;-79
2022/04/21 11:47:55;;;;;;;5.03;4.35;;;;;;;17.92;34.14;95846.75;5047183;28;20515;-78
2022/04/21 11:50:25;;;;;;;4.63;3.67;;;;;;;17.89;33.69;95836.72;5046598;28;20058;-83
2022/04/21 11:52:54;;;;;;;4.18;3.78;;;;;;;17.93;35.00;95827.25;5046146;28;20041;-82
2022/04/21 11:55:24;;;;;;;4.65;4.20;;;;;;;18.04;35.19;95839.50;5046447;28;20129;-80
2022/04/21 11:57:52;;;;;;;5.28;4.43;;;;;;;18.11;34.30;95829.56;5045288;28;20430;-78
2022/04/21 12:08:35;;;;;;;5.22;3.60;;;;;;;18.28;34.01;95818.13;5047529;28;20392;-80
2022/04/21 12:11:03;;;;;;;4.47;4.07;;;;;;;18.24;33.65;95822.28;5046485;28;20060;-79
2022/04/21 12:13:30;;;;;;;3.90;3.60;;;;;;;18.14;33.89;95822.19;5046543;28;20053;-80
2022/04/21 12:15:58;;;;;;;4.85;4.45;;;;;;;17.94;34.22;95813.00;5044053;28;20053;-78
2022/04/21 12:18:27;;;;;;;6.82;3.30;;;;;;;17.83;34.35;95813.94;5045938;28;20060;-81
2022/04/21 12:20:55;;;;;;;4.25;3.83;;;;;;;17.78;34.29;95813.88;5046063;28;20392;-81
2022/04/21 12:23:24;;;;;;;4.75;4.35;;;;;;;17.70;34.07;95807.97;5046097;28;20057;-79
2022/04/21 12:25:52;;;;;;;3.97;3.58;;;;;;;17.68;34.34;95812.69;5046184;28;20057;-81
2022/04/21 12:28:20;;;;;;;3.67;3.38;;;;;;;17.67;33.96;95803.19;5045353;28;20053;-81
2022/04/21 12:30:48;;;;;;;3.95;3.65;;;;;;;17.64;33.60;95798.38;5045853;28;20041;-79
2022/04/21 12:33:16;;;;;;;5.07;3.28;;;;;;;17.57;33.29;95802.25;5046408;28;20049;-79
2022/04/21 12:35:46;;;;;;;6.47;3.10;;;;;;;17.50;33.51;95808.50;5047813;28;20064;-84
2022/04/21 12:41:00;;;;;;;4.25;3.85;;;;;;;17.39;34.10;95792.81;5045933;28;20049;-83
2022/04/21 12:43:29;;;;;;;4.50;4.05;;;;;;;17.33;34.41;95785.88;5046291;28;20049;-82
2022/04/21 12:45:58;;;;;;;6.10;3.72;;;;;;;17.30;34.29;95780.06;5046412;28;20075;-81
2022/04/21 12:48:26;;;;;;;4.28;3.20;;;;;;;17.32;33.81;95784.28;5045442;28;20114;-81
2022/04/21 12:50:57;;;;;;;3.28;2.97;;;;;;;17.39;33.58;95779.63;5046444;28;20049;-80